sensor_id;sensor_type;location;lat;lon;timestamp;temperature;humidity
13992;DHT22;7070;53.586;9.692;2023-05-06T00:01:09;10.10;75.70
13992;DHT22;7070;53.586;9.692;2023-05-06T00:03:38;10.10;75.80
13992;DHT22;7070;53.586;9.692;2023-05-06T00:06:05;10.10;75.90
13992;DHT22;7070;53.586;9.692;2023-05-06T00:08:33;10.20;75.90
13992;DHT22;7070;53.586;9.692;2023-05-06T00:11:01;10.10;75.70
13992;DHT22;7070;53.586;9.692;2023-05-06T00:13:28;10.10;75.80
13992;DHT22;7070;53.586;9.692;2023-05-06T00:15:55;10.10;75.80
13992;DHT22;7070;53.586;9.692;2023-05-06T00:18:22;10.10;75.80
13992;DHT22;7070;53.586;9.692;2023-05-06T00:20:52;10.10;75.90
13992;DHT22;7070;53.586;9.692;2023-05-06T00:23:19;10.00;75.80
13992;DHT22;7070;53.586;9.692;2023-05-06T00:25:46;10.10;75.90
13992;DHT22;7070;53.586;9.692;2023-05-06T00:28:14;10.10;75.90
13992;DHT22;7070;53.586;9.692;2023-05-06T00:30:41;10.00;75.80
13992;DHT22;7070;53.586;9.692;2023-05-06T00:33:08;10.00;75.90
13992;DHT22;7070;53.586;9.692;2023-05-06T00:35:35;10.10;75.90
13992;DHT22;7070;53.586;9.692;2023-05-06T00:38:12;10.00;75.80
13992;DHT22;7070;53.586;9.692;2023-05-06T00:40:39;10.10;75.90
13992;DHT22;7070;53.586;9.692;2023-05-06T00:43:06;10.10;76.00
13992;DHT22;7070;53.586;9.692;2023-05-06T00:45:35;10.10;76.10
13992;DHT22;7070;53.586;9.692;2023-05-06T00:48:03;10.00;76.00
13992;DHT22;7070;53.586;9.692;2023-05-06T00:50:32;10.10;76.20
13992;DHT22;7070;53.586;9.692;2023-05-06T00:53:01;10.10;76.20
13992;DHT22;7070;53.586;9.692;2023-05-06T00:55:29;10.00;76.10
13992;DHT22;7070;53.586;9.692;2023-05-06T00:57:56;10.00;76.30
13992;DHT22;7070;53.586;9.692;2023-05-06T01:00:23;10.00;76.30
13992;DHT22;7070;53.586;9.692;2023-05-06T01:02:51;10.00;76.50
13992;DHT22;7070;53.586;9.692;2023-05-06T01:05:20;10.00;76.50
13992;DHT22;7070;53.586;9.692;2023-05-06T01:07:53;10.00;76.70
13992;DHT22;7070;53.586;9.692;2023-05-06T01:10:26;10.00;76.40
13992;DHT22;7070;53.586;9.692;2023-05-06T01:13:02;9.90;77.50
13992;DHT22;7070;53.586;9.692;2023-05-06T01:15:33;10.00;76.60
13992;DHT22;7070;53.586;9.692;2023-05-06T01:18:07;10.00;76.90
13992;DHT22;7070;53.586;9.692;2023-05-06T01:20:35;9.90;77.80
13992;DHT22;7070;53.586;9.692;2023-05-06T01:23:07;9.90;78.00
13992;DHT22;7070;53.586;9.692;2023-05-06T01:25:34;9.90;78.00
13992;DHT22;7070;53.586;9.692;2023-05-06T01:28:00;9.90;78.20
13992;DHT22;7070;53.586;9.692;2023-05-06T01:30:34;9.90;78.30
13992;DHT22;7070;53.586;9.692;2023-05-06T01:33:06;9.90;78.10
13992;DHT22;7070;53.586;9.692;2023-05-06T01:35:38;9.90;78.30
13992;DHT22;7070;53.586;9.692;2023-05-06T01:38:16;9.90;78.30
13992;DHT22;7070;53.586;9.692;2023-05-06T01:40:49;9.90;78.50
13992;DHT22;7070;53.586;9.692;2023-05-06T01:43:20;9.90;78.50
13992;DHT22;7070;53.586;9.692;2023-05-06T01:45:48;9.90;78.60
13992;DHT22;7070;53.586;9.692;2023-05-06T01:48:19;9.90;78.60
13992;DHT22;7070;53.586;9.692;2023-05-06T01:50:47;9.80;78.50
13992;DHT22;7070;53.586;9.692;2023-05-06T01:53:16;9.90;78.70
13992;DHT22;7070;53.586;9.692;2023-05-06T01:55:42;9.80;78.70
13992;DHT22;7070;53.586;9.692;2023-05-06T01:58:09;9.90;79.00
13992;DHT22;7070;53.586;9.692;2023-05-06T02:00:37;9.90;79.00
13992;DHT22;7070;53.586;9.692;2023-05-06T02:03:03;9.80;78.90
13992;DHT22;7070;53.586;9.692;2023-05-06T02:05:30;9.80;79.10
13992;DHT22;7070;53.586;9.692;2023-05-06T02:07:57;9.80;79.10
13992;DHT22;7070;53.586;9.692;2023-05-06T02:10:26;9.90;79.20
13992;DHT22;7070;53.586;9.692;2023-05-06T02:12:52;9.90;79.20
13992;DHT22;7070;53.586;9.692;2023-05-06T02:15:19;9.90;79.30
13992;DHT22;7070;53.586;9.692;2023-05-06T02:17:46;9.90;79.30
13992;DHT22;7070;53.586;9.692;2023-05-06T02:20:13;9.90;79.40
13992;DHT22;7070;53.586;9.692;2023-05-06T02:22:40;9.90;79.40
13992;DHT22;7070;53.586;9.692;2023-05-06T02:25:08;9.90;79.30
13992;DHT22;7070;53.586;9.692;2023-05-06T02:27:36;9.90;79.40
13992;DHT22;7070;53.586;9.692;2023-05-06T02:30:03;10.00;78.40
13992;DHT22;7070;53.586;9.692;2023-05-06T02:32:30;9.90;79.40
13992;DHT22;7070;53.586;9.692;2023-05-06T02:34:57;9.90;79.50
13992;DHT22;7070;53.586;9.692;2023-05-06T02:37:24;9.90;79.50
13992;DHT22;7070;53.586;9.692;2023-05-06T02:39:51;10.00;78.60
13992;DHT22;7070;53.586;9.692;2023-05-06T02:42:18;9.90;79.60
13992;DHT22;7070;53.586;9.692;2023-05-06T02:44:47;10.00;78.60
13992;DHT22;7070;53.586;9.692;2023-05-06T02:47:13;10.00;78.60
13992;DHT22;7070;53.586;9.692;2023-05-06T02:49:40;10.00;78.60
13992;DHT22;7070;53.586;9.692;2023-05-06T02:52:07;10.00;78.60
13992;DHT22;7070;53.586;9.692;2023-05-06T02:54:34;10.00;78.60
13992;DHT22;7070;53.586;9.692;2023-05-06T02:57:01;10.00;78.70
13992;DHT22;7070;53.586;9.692;2023-05-06T02:59:28;10.00;78.60
13992;DHT22;7070;53.586;9.692;2023-05-06T03:01:56;10.00;78.70
13992;DHT22;7070;53.586;9.692;2023-05-06T03:04:25;10.00;78.70
13992;DHT22;7070;53.586;9.692;2023-05-06T03:06:52;10.00;78.70
13992;DHT22;7070;53.586;9.692;2023-05-06T03:09:19;10.00;78.80
13992;DHT22;7070;53.586;9.692;2023-05-06T03:11:46;10.00;78.80
13992;DHT22;7070;53.586;9.692;2023-05-06T03:14:13;9.90;79.80
13992;DHT22;7070;53.586;9.692;2023-05-06T03:16:40;9.90;79.80
13992;DHT22;7070;53.586;9.692;2023-05-06T03:19:08;10.00;78.90
13992;DHT22;7070;53.586;9.692;2023-05-06T03:21:35;10.00;78.90
13992;DHT22;7070;53.586;9.692;2023-05-06T03:24:03;9.90;80.00
13992;DHT22;7070;53.586;9.692;2023-05-06T03:26:30;9.90;79.90
13992;DHT22;7070;53.586;9.692;2023-05-06T03:28:56;9.90;80.00
13992;DHT22;7070;53.586;9.692;2023-05-06T03:31:23;9.90;80.00
13992;DHT22;7070;53.586;9.692;2023-05-06T03:33:50;9.90;80.00
13992;DHT22;7070;53.586;9.692;2023-05-06T03:36:18;10.00;79.00
13992;DHT22;7070;53.586;9.692;2023-05-06T03:38:46;10.00;79.00
13992;DHT22;7070;53.586;9.692;2023-05-06T03:41:13;9.90;80.10
13992;DHT22;7070;53.586;9.692;2023-05-06T03:43:40;9.90;80.10
13992;DHT22;7070;53.586;9.692;2023-05-06T03:46:06;10.00;79.20
13992;DHT22;7070;53.586;9.692;2023-05-06T03:48:33;10.00;79.90
13992;DHT22;7070;53.586;9.692;2023-05-06T03:51:00;10.00;79.20
13992;DHT22;7070;53.586;9.692;2023-05-06T03:53:29;9.90;80.20
13992;DHT22;7070;53.586;9.692;2023-05-06T03:55:55;10.00;79.20
13992;DHT22;7070;53.586;9.692;2023-05-06T03:58:22;10.00;79.20
13992;DHT22;7070;53.586;9.692;2023-05-06T04:00:49;10.00;79.10
13992;DHT22;7070;53.586;9.692;2023-05-06T04:03:16;10.00;79.20
13992;DHT22;7070;53.586;9.692;2023-05-06T04:05:44;10.00;79.10
13992;DHT22;7070;53.586;9.692;2023-05-06T04:08:11;10.00;79.10
13992;DHT22;7070;53.586;9.692;2023-05-06T04:10:40;10.00;79.20
13992;DHT22;7070;53.586;9.692;2023-05-06T04:13:06;10.00;79.20
13992;DHT22;7070;53.586;9.692;2023-05-06T04:15:34;10.10;79.30
13992;DHT22;7070;53.586;9.692;2023-05-06T04:18:02;10.10;79.20
13992;DHT22;7070;53.586;9.692;2023-05-06T04:20:29;10.10;79.20
13992;DHT22;7070;53.586;9.692;2023-05-06T04:22:55;10.10;79.20
13992;DHT22;7070;53.586;9.692;2023-05-06T04:25:22;10.10;79.20
13992;DHT22;7070;53.586;9.692;2023-05-06T04:27:50;10.10;79.20
13992;DHT22;7070;53.586;9.692;2023-05-06T04:30:18;10.10;79.10
13992;DHT22;7070;53.586;9.692;2023-05-06T04:32:45;10.20;79.10
13992;DHT22;7070;53.586;9.692;2023-05-06T04:35:12;10.10;79.00
13992;DHT22;7070;53.586;9.692;2023-05-06T04:37:39;10.10;79.00
13992;DHT22;7070;53.586;9.692;2023-05-06T04:40:08;10.20;79.00
13992;DHT22;7070;53.586;9.692;2023-05-06T04:42:36;10.20;79.00
13992;DHT22;7070;53.586;9.692;2023-05-06T04:45:06;10.20;79.00
13992;DHT22;7070;53.586;9.692;2023-05-06T04:47:33;10.20;79.00
13992;DHT22;7070;53.586;9.692;2023-05-06T04:50:00;10.20;79.00
13992;DHT22;7070;53.586;9.692;2023-05-06T04:52:27;10.20;78.90
13992;DHT22;7070;53.586;9.692;2023-05-06T04:54:54;10.20;79.00
13992;DHT22;7070;53.586;9.692;2023-05-06T04:57:21;10.20;79.00
13992;DHT22;7070;53.586;9.692;2023-05-06T04:59:48;10.30;79.10
13992;DHT22;7070;53.586;9.692;2023-05-06T05:02:16;10.30;79.10
13992;DHT22;7070;53.586;9.692;2023-05-06T05:04:43;10.30;79.00
13992;DHT22;7070;53.586;9.692;2023-05-06T05:07:10;10.30;78.90
13992;DHT22;7070;53.586;9.692;2023-05-06T05:09:37;10.40;78.90
13992;DHT22;7070;53.586;9.692;2023-05-06T05:12:04;10.40;78.80
13992;DHT22;7070;53.586;9.692;2023-05-06T05:14:31;10.40;78.90
13992;DHT22;7070;53.586;9.692;2023-05-06T05:16:58;10.40;78.80
13992;DHT22;7070;53.586;9.692;2023-05-06T05:19:26;10.40;78.80
13992;DHT22;7070;53.586;9.692;2023-05-06T05:21:53;10.40;78.90
13992;DHT22;7070;53.586;9.692;2023-05-06T05:24:20;10.40;78.80
13992;DHT22;7070;53.586;9.692;2023-05-06T05:26:47;10.40;79.50
13992;DHT22;7070;53.586;9.692;2023-05-06T05:29:14;10.40;78.80
13992;DHT22;7070;53.586;9.692;2023-05-06T05:31:40;10.40;78.80
13992;DHT22;7070;53.586;9.692;2023-05-06T05:34:07;10.40;78.80
13992;DHT22;7070;53.586;9.692;2023-05-06T05:36:36;10.50;78.90
13992;DHT22;7070;53.586;9.692;2023-05-06T05:39:03;10.50;78.80
13992;DHT22;7070;53.586;9.692;2023-05-06T05:41:29;10.50;78.80
13992;DHT22;7070;53.586;9.692;2023-05-06T05:43:56;10.50;78.80
13992;DHT22;7070;53.586;9.692;2023-05-06T05:46:23;10.50;78.80
13992;DHT22;7070;53.586;9.692;2023-05-06T05:48:50;10.50;78.70
13992;DHT22;7070;53.586;9.692;2023-05-06T05:51:17;10.50;78.60
13992;DHT22;7070;53.586;9.692;2023-05-06T05:53:45;10.50;78.70
13992;DHT22;7070;53.586;9.692;2023-05-06T05:56:12;10.60;78.80
13992;DHT22;7070;53.586;9.692;2023-05-06T05:58:39;10.60;78.70
13992;DHT22;7070;53.586;9.692;2023-05-06T06:01:05;10.60;78.80
13992;DHT22;7070;53.586;9.692;2023-05-06T06:03:32;10.60;78.80
13992;DHT22;7070;53.586;9.692;2023-05-06T06:05:59;10.60;78.70
13992;DHT22;7070;53.586;9.692;2023-05-06T06:08:26;10.60;78.60
13992;DHT22;7070;53.586;9.692;2023-05-06T06:10:55;10.60;78.70
13992;DHT22;7070;53.586;9.692;2023-05-06T06:13:22;10.70;78.80
13992;DHT22;7070;53.586;9.692;2023-05-06T06:15:49;10.70;78.80
13992;DHT22;7070;53.586;9.692;2023-05-06T06:18:16;10.70;78.80
13992;DHT22;7070;53.586;9.692;2023-05-06T06:20:43;10.70;78.80
13992;DHT22;7070;53.586;9.692;2023-05-06T06:23:10;10.80;78.90
13992;DHT22;7070;53.586;9.692;2023-05-06T06:25:36;10.80;78.80
13992;DHT22;7070;53.586;9.692;2023-05-06T06:28:05;10.80;78.80
13992;DHT22;7070;53.586;9.692;2023-05-06T06:30:32;10.90;79.60
13992;DHT22;7070;53.586;9.692;2023-05-06T06:32:59;10.90;78.90
13992;DHT22;7070;53.586;9.692;2023-05-06T06:35:26;11.00;78.90
13992;DHT22;7070;53.586;9.692;2023-05-06T06:37:53;11.00;79.40
13992;DHT22;7070;53.586;9.692;2023-05-06T06:40:20;11.00;78.60
13992;DHT22;7070;53.586;9.692;2023-05-06T06:42:47;11.10;78.50
13992;DHT22;7070;53.586;9.692;2023-05-06T06:45:17;11.10;78.50
13992;DHT22;7070;53.586;9.692;2023-05-06T06:47:44;11.10;78.60
13992;DHT22;7070;53.586;9.692;2023-05-06T06:50:11;11.20;78.60
13992;DHT22;7070;53.586;9.692;2023-05-06T06:52:38;11.30;78.70
13992;DHT22;7070;53.586;9.692;2023-05-06T06:55:06;11.30;78.50
13992;DHT22;7070;53.586;9.692;2023-05-06T06:57:33;11.30;78.40
13992;DHT22;7070;53.586;9.692;2023-05-06T07:00:00;11.30;78.30
13992;DHT22;7070;53.586;9.692;2023-05-06T07:02:28;11.40;79.10
13992;DHT22;7070;53.586;9.692;2023-05-06T07:04:55;13.10;79.90
13992;DHT22;7070;53.586;9.692;2023-05-06T07:07:21;11.40;78.00
13992;DHT22;7070;53.586;9.692;2023-05-06T07:09:48;11.40;78.00
13992;DHT22;7070;53.586;9.692;2023-05-06T07:12:15;11.50;78.20
13992;DHT22;7070;53.586;9.692;2023-05-06T07:14:42;11.50;78.10
13992;DHT22;7070;53.586;9.692;2023-05-06T07:17:09;11.50;77.90
13992;DHT22;7070;53.586;9.692;2023-05-06T07:19:37;11.60;78.00
13992;DHT22;7070;53.586;9.692;2023-05-06T07:22:04;11.60;77.90
13992;DHT22;7070;53.586;9.692;2023-05-06T07:24:31;11.70;78.10
13992;DHT22;7070;53.586;9.692;2023-05-06T07:26:57;11.80;78.10
13992;DHT22;7070;53.586;9.692;2023-05-06T07:29:26;11.70;77.90
13992;DHT22;7070;53.586;9.692;2023-05-06T07:31:52;11.80;78.00
13992;DHT22;7070;53.586;9.692;2023-05-06T07:34:19;12.00;78.10
13992;DHT22;7070;53.586;9.692;2023-05-06T07:36:47;12.10;78.00
13992;DHT22;7070;53.586;9.692;2023-05-06T07:39:15;12.10;77.70
13992;DHT22;7070;53.586;9.692;2023-05-06T07:41:41;12.20;77.70
13992;DHT22;7070;53.586;9.692;2023-05-06T07:44:08;12.30;77.50
13992;DHT22;7070;53.586;9.692;2023-05-06T07:46:35;12.40;77.60
13992;DHT22;7070;53.586;9.692;2023-05-06T07:49:02;12.40;77.40
13992;DHT22;7070;53.586;9.692;2023-05-06T07:51:29;12.50;77.40
13992;DHT22;7070;53.586;9.692;2023-05-06T07:53:57;12.50;77.30
13992;DHT22;7070;53.586;9.692;2023-05-06T07:56:24;12.60;77.10
13992;DHT22;7070;53.586;9.692;2023-05-06T07:58:51;12.70;77.00
13992;DHT22;7070;53.586;9.692;2023-05-06T08:01:18;12.80;76.90
13992;DHT22;7070;53.586;9.692;2023-05-06T08:03:45;12.90;76.90
13992;DHT22;7070;53.586;9.692;2023-05-06T08:06:11;12.90;76.80
13992;DHT22;7070;53.586;9.692;2023-05-06T08:08:38;13.00;76.80
13992;DHT22;7070;53.586;9.692;2023-05-06T08:11:06;13.10;77.50
13992;DHT22;7070;53.586;9.692;2023-05-06T08:13:33;13.20;76.60
13992;DHT22;7070;53.586;9.692;2023-05-06T08:16:00;13.30;76.50
13992;DHT22;7070;53.586;9.692;2023-05-06T08:18:27;13.40;76.30
13992;DHT22;7070;53.586;9.692;2023-05-06T08:20:54;13.40;76.10
13992;DHT22;7070;53.586;9.692;2023-05-06T08:23:21;13.50;76.10
13992;DHT22;7070;53.586;9.692;2023-05-06T08:25:48;13.50;75.90
13992;DHT22;7070;53.586;9.692;2023-05-06T08:28:16;13.60;75.70
13992;DHT22;7070;53.586;9.692;2023-05-06T08:30:43;13.60;75.40
13992;DHT22;7070;53.586;9.692;2023-05-06T08:33:12;13.70;75.60
13992;DHT22;7070;53.586;9.692;2023-05-06T08:35:39;13.60;75.40
13992;DHT22;7070;53.586;9.692;2023-05-06T08:38:05;13.80;75.40
13992;DHT22;7070;53.586;9.692;2023-05-06T08:40:32;13.80;75.10
13992;DHT22;7070;53.586;9.692;2023-05-06T08:43:02;13.80;75.00
13992;DHT22;7070;53.586;9.692;2023-05-06T08:45:31;13.80;74.70
13992;DHT22;7070;53.586;9.692;2023-05-06T08:47:58;13.80;74.80
13992;DHT22;7070;53.586;9.692;2023-05-06T08:50:25;13.80;74.80
13992;DHT22;7070;53.586;9.692;2023-05-06T08:52:52;13.80;74.80
13992;DHT22;7070;53.586;9.692;2023-05-06T08:55:21;13.80;74.60
13992;DHT22;7070;53.586;9.692;2023-05-06T08:57:48;13.80;74.60
13992;DHT22;7070;53.586;9.692;2023-05-06T09:00:16;13.80;74.50
13992;DHT22;7070;53.586;9.692;2023-05-06T09:02:44;13.90;74.60
13992;DHT22;7070;53.586;9.692;2023-05-06T09:05:11;13.90;74.40
13992;DHT22;7070;53.586;9.692;2023-05-06T09:07:38;13.90;74.40
13992;DHT22;7070;53.586;9.692;2023-05-06T09:10:06;13.90;74.50
13992;DHT22;7070;53.586;9.692;2023-05-06T09:12:35;13.90;74.40
13992;DHT22;7070;53.586;9.692;2023-05-06T09:15:04;13.90;74.20
13992;DHT22;7070;53.586;9.692;2023-05-06T09:17:32;13.90;74.10
13992;DHT22;7070;53.586;9.692;2023-05-06T09:20:00;13.90;74.10
13992;DHT22;7070;53.586;9.692;2023-05-06T09:22:28;13.90;74.00
13992;DHT22;7070;53.586;9.692;2023-05-06T09:24:56;13.90;74.00
13992;DHT22;7070;53.586;9.692;2023-05-06T09:27:24;13.90;73.90
13992;DHT22;7070;53.586;9.692;2023-05-06T09:30:01;13.80;73.80
13992;DHT22;7070;53.586;9.692;2023-05-06T09:32:29;13.80;73.90
13992;DHT22;7070;53.586;9.692;2023-05-06T09:34:56;13.90;74.20
13992;DHT22;7070;53.586;9.692;2023-05-06T09:37:25;13.90;74.40
13992;DHT22;7070;53.586;9.692;2023-05-06T09:39:53;13.90;74.50
13992;DHT22;7070;53.586;9.692;2023-05-06T09:42:21;14.00;74.50
13992;DHT22;7070;53.586;9.692;2023-05-06T09:44:48;14.10;74.30
13992;DHT22;7070;53.586;9.692;2023-05-06T09:47:16;14.10;74.90
13992;DHT22;7070;53.586;9.692;2023-05-06T09:49:43;14.20;74.10
13992;DHT22;7070;53.586;9.692;2023-05-06T09:52:11;14.20;73.90
13992;DHT22;7070;53.586;9.692;2023-05-06T09:54:39;14.20;73.90
13992;DHT22;7070;53.586;9.692;2023-05-06T09:57:06;14.30;74.00
13992;DHT22;7070;53.586;9.692;2023-05-06T09:59:35;14.30;73.90
13992;DHT22;7070;53.586;9.692;2023-05-06T10:02:03;14.40;73.90
13992;DHT22;7070;53.586;9.692;2023-05-06T10:04:32;14.40;73.70
13992;DHT22;7070;53.586;9.692;2023-05-06T10:07:02;14.40;73.70
13992;DHT22;7070;53.586;9.692;2023-05-06T10:09:29;14.40;73.80
13992;DHT22;7070;53.586;9.692;2023-05-06T10:11:58;14.50;73.70
13992;DHT22;7070;53.586;9.692;2023-05-06T10:14:27;14.50;73.60
13992;DHT22;7070;53.586;9.692;2023-05-06T10:16:54;14.50;73.40
13992;DHT22;7070;53.586;9.692;2023-05-06T10:19:22;14.50;73.50
13992;DHT22;7070;53.586;9.692;2023-05-06T10:21:53;14.50;73.40
13992;DHT22;7070;53.586;9.692;2023-05-06T10:24:28;14.50;73.30
13992;DHT22;7070;53.586;9.692;2023-05-06T10:27:00;14.50;73.10
13992;DHT22;7070;53.586;9.692;2023-05-06T10:29:30;14.50;73.30
13992;DHT22;7070;53.586;9.692;2023-05-06T10:31:58;14.50;73.40
13992;DHT22;7070;53.586;9.692;2023-05-06T10:34:31;14.40;73.20
13992;DHT22;7070;53.586;9.692;2023-05-06T10:37:04;14.50;73.40
13992;DHT22;7070;53.586;9.692;2023-05-06T10:39:32;14.50;73.50
13992;DHT22;7070;53.586;9.692;2023-05-06T10:42:00;14.50;73.50
13992;DHT22;7070;53.586;9.692;2023-05-06T10:44:58;14.50;73.50
13992;DHT22;7070;53.586;9.692;2023-05-06T10:47:25;14.60;73.50
13992;DHT22;7070;53.586;9.692;2023-05-06T10:50:18;14.70;73.80
13992;DHT22;7070;53.586;9.692;2023-05-06T10:52:46;14.70;73.50
13992;DHT22;7070;53.586;9.692;2023-05-06T10:55:27;14.80;73.40
13992;DHT22;7070;53.586;9.692;2023-05-06T10:57:56;14.80;73.20
13992;DHT22;7070;53.586;9.692;2023-05-06T11:00:25;14.80;73.00
13992;DHT22;7070;53.586;9.692;2023-05-06T11:02:56;14.80;73.10
13992;DHT22;7070;53.586;9.692;2023-05-06T11:05:23;14.80;73.00
13992;DHT22;7070;53.586;9.692;2023-05-06T11:07:50;14.80;73.00
13992;DHT22;7070;53.586;9.692;2023-05-06T11:10:31;14.80;72.80
13992;DHT22;7070;53.586;9.692;2023-05-06T11:13:17;14.90;73.00
13992;DHT22;7070;53.586;9.692;2023-05-06T11:15:44;14.80;72.90
13992;DHT22;7070;53.586;9.692;2023-05-06T11:18:44;14.90;72.90
13992;DHT22;7070;53.586;9.692;2023-05-06T11:21:39;14.90;72.70
13992;DHT22;7070;53.586;9.692;2023-05-06T11:24:10;14.90;72.40
13992;DHT22;7070;53.586;9.692;2023-05-06T11:26:41;14.80;72.50
13992;DHT22;7070;53.586;9.692;2023-05-06T11:29:10;14.80;72.50
13992;DHT22;7070;53.586;9.692;2023-05-06T11:31:41;14.80;72.50
13992;DHT22;7070;53.586;9.692;2023-05-06T11:34:10;14.80;72.60
13992;DHT22;7070;53.586;9.692;2023-05-06T11:36:59;14.80;72.80
13992;DHT22;7070;53.586;9.692;2023-05-06T11:39:27;14.80;72.70
13992;DHT22;7070;53.586;9.692;2023-05-06T11:41:57;14.80;72.90
13992;DHT22;7070;53.586;9.692;2023-05-06T11:44:27;14.80;72.90
13992;DHT22;7070;53.586;9.692;2023-05-06T11:46:59;14.80;73.00
13992;DHT22;7070;53.586;9.692;2023-05-06T11:49:26;14.90;73.20
13992;DHT22;7070;53.586;9.692;2023-05-06T11:51:54;15.00;73.10
13992;DHT22;7070;53.586;9.692;2023-05-06T11:54:21;15.00;72.80
13992;DHT22;7070;53.586;9.692;2023-05-06T11:56:50;15.00;72.50
13992;DHT22;7070;53.586;9.692;2023-05-06T11:59:27;15.00;72.20
13992;DHT22;7070;53.586;9.692;2023-05-06T12:01:55;15.00;72.10
13992;DHT22;7070;53.586;9.692;2023-05-06T12:04:23;14.90;72.00
13992;DHT22;7070;53.586;9.692;2023-05-06T12:06:50;14.80;72.00
13992;DHT22;7070;53.586;9.692;2023-05-06T12:09:18;14.80;72.30
13992;DHT22;7070;53.586;9.692;2023-05-06T12:11:47;14.90;72.40
13992;DHT22;7070;53.586;9.692;2023-05-06T12:14:14;14.80;72.40
13992;DHT22;7070;53.586;9.692;2023-05-06T12:16:43;14.80;72.30
13992;DHT22;7070;53.586;9.692;2023-05-06T12:19:10;14.90;72.40
13992;DHT22;7070;53.586;9.692;2023-05-06T12:21:37;14.90;72.30
13992;DHT22;7070;53.586;9.692;2023-05-06T12:24:05;14.90;72.50
13992;DHT22;7070;53.586;9.692;2023-05-06T12:26:43;14.90;72.50
13992;DHT22;7070;53.586;9.692;2023-05-06T12:29:12;15.00;72.50
13992;DHT22;7070;53.586;9.692;2023-05-06T12:31:40;15.10;72.60
13992;DHT22;7070;53.586;9.692;2023-05-06T12:34:09;15.20;72.40
13992;DHT22;7070;53.586;9.692;2023-05-06T12:36:40;15.30;72.30
13992;DHT22;7070;53.586;9.692;2023-05-06T12:39:07;15.30;72.20
13992;DHT22;7070;53.586;9.692;2023-05-06T12:41:36;15.30;72.10
13992;DHT22;7070;53.586;9.692;2023-05-06T12:44:29;15.30;71.90
13992;DHT22;7070;53.586;9.692;2023-05-06T12:46:58;15.40;72.10
13992;DHT22;7070;53.586;9.692;2023-05-06T12:49:27;15.40;72.10
13992;DHT22;7070;53.586;9.692;2023-05-06T12:52:07;15.50;71.90
13992;DHT22;7070;53.586;9.692;2023-05-06T12:54:35;15.50;71.80
13992;DHT22;7070;53.586;9.692;2023-05-06T12:57:02;15.60;71.60
13992;DHT22;7070;53.586;9.692;2023-05-06T12:59:29;15.60;71.60
13992;DHT22;7070;53.586;9.692;2023-05-06T13:01:56;15.60;71.30
13992;DHT22;7070;53.586;9.692;2023-05-06T13:04:24;15.60;71.30
13992;DHT22;7070;53.586;9.692;2023-05-06T13:06:53;15.60;71.40
13992;DHT22;7070;53.586;9.692;2023-05-06T13:09:21;15.60;71.50
13992;DHT22;7070;53.586;9.692;2023-05-06T13:11:48;15.60;71.40
13992;DHT22;7070;53.586;9.692;2023-05-06T13:14:15;15.60;71.30
13992;DHT22;7070;53.586;9.692;2023-05-06T13:16:43;15.60;71.10
13992;DHT22;7070;53.586;9.692;2023-05-06T13:19:10;15.60;71.00
13992;DHT22;7070;53.586;9.692;2023-05-06T13:21:38;15.60;71.00
13992;DHT22;7070;53.586;9.692;2023-05-06T13:24:07;15.60;71.00
13992;DHT22;7070;53.586;9.692;2023-05-06T13:26:35;15.70;71.00
13992;DHT22;7070;53.586;9.692;2023-05-06T13:29:02;15.70;71.00
13992;DHT22;7070;53.586;9.692;2023-05-06T13:31:29;15.70;71.20
13992;DHT22;7070;53.586;9.692;2023-05-06T13:33:57;15.80;71.40
13992;DHT22;7070;53.586;9.692;2023-05-06T13:36:24;15.90;71.50
13992;DHT22;7070;53.586;9.692;2023-05-06T13:38:51;16.00;71.30
13992;DHT22;7070;53.586;9.692;2023-05-06T13:41:20;16.00;71.00
13992;DHT22;7070;53.586;9.692;2023-05-06T13:43:47;16.20;70.80
13992;DHT22;7070;53.586;9.692;2023-05-06T13:46:13;16.20;71.40
13992;DHT22;7070;53.586;9.692;2023-05-06T13:48:40;16.20;70.30
13992;DHT22;7070;53.586;9.692;2023-05-06T13:51:07;16.20;70.00
13992;DHT22;7070;53.586;9.692;2023-05-06T13:53:34;16.10;69.80
13992;DHT22;7070;53.586;9.692;2023-05-06T13:56:01;16.00;69.80
13992;DHT22;7070;53.586;9.692;2023-05-06T13:58:29;16.00;69.70
13992;DHT22;7070;53.586;9.692;2023-05-06T14:00:56;15.90;69.90
13992;DHT22;7070;53.586;9.692;2023-05-06T14:03:23;15.80;69.90
13992;DHT22;7070;53.586;9.692;2023-05-06T14:05:50;15.80;70.00
13992;DHT22;7070;53.586;9.692;2023-05-06T14:08:17;15.80;69.90
13992;DHT22;7070;53.586;9.692;2023-05-06T14:10:44;15.70;69.60
13992;DHT22;7070;53.586;9.692;2023-05-06T14:13:10;15.60;69.70
13992;DHT22;7070;53.586;9.692;2023-05-06T14:15:39;15.60;69.90
13992;DHT22;7070;53.586;9.692;2023-05-06T14:18:05;15.50;70.00
13992;DHT22;7070;53.586;9.692;2023-05-06T14:20:32;15.50;70.00
13992;DHT22;7070;53.586;9.692;2023-05-06T14:22:59;15.40;69.90
13992;DHT22;7070;53.586;9.692;2023-05-06T14:25:26;15.30;69.90
13992;DHT22;7070;53.586;9.692;2023-05-06T14:27:53;15.20;70.00
13992;DHT22;7070;53.586;9.692;2023-05-06T14:30:20;15.20;70.00
13992;DHT22;7070;53.586;9.692;2023-05-06T14:32:49;15.20;70.20
13992;DHT22;7070;53.586;9.692;2023-05-06T14:35:16;15.20;70.40
13992;DHT22;7070;53.586;9.692;2023-05-06T14:37:43;15.10;70.30
13992;DHT22;7070;53.586;9.692;2023-05-06T14:40:10;15.10;70.40
13992;DHT22;7070;53.586;9.692;2023-05-06T14:42:37;15.10;70.40
13992;DHT22;7070;53.586;9.692;2023-05-06T14:45:04;15.10;70.40
13992;DHT22;7070;53.586;9.692;2023-05-06T14:47:31;15.00;70.40
13992;DHT22;7070;53.586;9.692;2023-05-06T14:50:00;15.00;70.30
13992;DHT22;7070;53.586;9.692;2023-05-06T14:52:27;15.00;70.40
13992;DHT22;7070;53.586;9.692;2023-05-06T14:54:53;15.00;70.60
13992;DHT22;7070;53.586;9.692;2023-05-06T14:57:20;15.00;70.90
13992;DHT22;7070;53.586;9.692;2023-05-06T14:59:49;15.00;70.90
13992;DHT22;7070;53.586;9.692;2023-05-06T15:02:16;15.10;70.80
13992;DHT22;7070;53.586;9.692;2023-05-06T15:04:42;15.10;70.70
13992;DHT22;7070;53.586;9.692;2023-05-06T15:07:11;15.20;71.40
13992;DHT22;7070;53.586;9.692;2023-05-06T15:09:38;15.10;70.40
13992;DHT22;7070;53.586;9.692;2023-05-06T15:12:08;15.10;70.40
13992;DHT22;7070;53.586;9.692;2023-05-06T15:14:35;15.00;70.30
13992;DHT22;7070;53.586;9.692;2023-05-06T15:17:02;14.90;70.90
13992;DHT22;7070;53.586;9.692;2023-05-06T15:19:29;14.90;70.30
13992;DHT22;7070;53.586;9.692;2023-05-06T15:21:56;14.80;70.40
13992;DHT22;7070;53.586;9.692;2023-05-06T15:24:24;14.70;70.40
13992;DHT22;7070;53.586;9.692;2023-05-06T15:26:52;14.70;70.50
13992;DHT22;7070;53.586;9.692;2023-05-06T15:29:19;14.60;70.50
13992;DHT22;7070;53.586;9.692;2023-05-06T15:31:46;14.60;70.70
13992;DHT22;7070;53.586;9.692;2023-05-06T15:34:13;14.50;70.70
13992;DHT22;7070;53.586;9.692;2023-05-06T15:36:40;14.50;70.80
13992;DHT22;7070;53.586;9.692;2023-05-06T15:39:07;14.40;71.50
13992;DHT22;7070;53.586;9.692;2023-05-06T15:41:36;14.30;70.80
13992;DHT22;7070;53.586;9.692;2023-05-06T15:44:04;14.30;70.90
13992;DHT22;7070;53.586;9.692;2023-05-06T15:46:31;14.30;71.00
13992;DHT22;7070;53.586;9.692;2023-05-06T15:48:58;14.10;71.60
13992;DHT22;7070;53.586;9.692;2023-05-06T15:51:25;14.10;71.00
13992;DHT22;7070;53.586;9.692;2023-05-06T15:53:52;14.00;71.00